createdAt,value
2018-02-09T00:03:09.000Z,1010.266
2018-02-09T00:13:09.000Z,1010.216
2018-02-09T00:23:09.000Z,1010.224
2018-02-09T00:33:09.000Z,1010.194
2018-02-09T00:43:09.000Z,1010.127
2018-02-09T00:53:09.000Z,1010.112
2018-02-09T01:03:10.000Z,1010.092
2018-02-09T01:13:09.000Z,1010.066
2018-02-09T01:23:09.000Z,1009.985
2018-02-09T01:33:09.000Z,1009.883
2018-02-09T01:43:09.000Z,1009.79
2018-02-09T01:53:09.000Z,1009.677
2018-02-09T02:03:09.000Z,1009.654
2018-02-09T02:13:09.000Z,1009.574
2018-02-09T02:23:09.000Z,1009.521
2018-02-09T02:33:09.000Z,1009.477
2018-02-09T02:43:09.000Z,1009.412
2018-02-09T02:53:09.000Z,1009.312
2018-02-09T03:03:09.000Z,1009.219
2018-02-09T03:13:09.000Z,1009.052
2018-02-09T03:23:10.000Z,1008.922
2018-02-09T03:33:10.000Z,1008.785
2018-02-09T03:43:10.000Z,1008.727
2018-02-09T03:53:10.000Z,1008.686
2018-02-09T04:03:10.000Z,1008.603
2018-02-09T04:13:10.000Z,1008.493
2018-02-09T04:23:10.000Z,1008.396
2018-02-09T04:33:10.000Z,1008.343
2018-02-09T04:43:10.000Z,1008.357
2018-02-09T04:53:10.000Z,1008.28
2018-02-09T05:03:10.000Z,1008.215
2018-02-09T05:13:10.000Z,1008.171
2018-02-09T05:23:10.000Z,1008.103
2018-02-09T05:33:10.000Z,1008.033
2018-02-09T05:43:10.000Z,1007.995
2018-02-09T05:53:10.000Z,1007.908
2018-02-09T06:03:10.000Z,1007.791
2018-02-09T06:13:10.000Z,1007.688
2018-02-09T06:23:10.000Z,1007.626
2018-02-09T06:33:10.000Z,1007.622
2018-02-09T06:43:10.000Z,1007.61
2018-02-09T06:53:10.000Z,1007.645
2018-02-09T07:03:10.000Z,1007.513
2018-02-09T07:13:10.000Z,1007.405
2018-02-09T07:23:10.000Z,1007.361
2018-02-09T07:33:10.000Z,1007.23
2018-02-09T07:43:10.000Z,1007.225
2018-02-09T07:53:10.000Z,1007.151
2018-02-09T08:03:10.000Z,1007.098
2018-02-09T08:13:10.000Z,1007.039
2018-02-09T08:23:10.000Z,1006.945
2018-02-09T08:33:10.000Z,1006.867
2018-02-09T08:43:10.000Z,1006.793
2018-02-09T08:53:10.000Z,1006.721
2018-02-09T09:03:10.000Z,1006.762
2018-02-09T09:13:10.000Z,1006.678
2018-02-09T09:23:10.000Z,1006.508
2018-02-09T09:33:10.000Z,1006.52
2018-02-09T09:43:10.000Z,1006.505
2018-02-09T09:53:10.000Z,1006.433
2018-02-09T10:03:10.000Z,1006.267
2018-02-09T10:13:10.000Z,1006.268
2018-02-09T10:23:10.000Z,1006.157
2018-02-09T10:33:10.000Z,1006.142
2018-02-09T10:43:10.000Z,1006.09
2018-02-09T10:53:10.000Z,1006
2018-02-09T11:03:10.000Z,1005.839
2018-02-09T11:13:10.000Z,1005.826
2018-02-09T11:23:10.000Z,1005.84
2018-02-09T11:33:11.000Z,1005.749
2018-02-09T11:43:11.000Z,1005.617
2018-02-09T11:53:11.000Z,1005.475
2018-02-09T12:03:11.000Z,1005.419
2018-02-09T12:13:11.000Z,1005.359
2018-02-09T12:23:11.000Z,1005.316
2018-02-09T12:33:11.000Z,1005.245
2018-02-09T12:43:12.000Z,1005.182
2018-02-09T12:53:11.000Z,1005.139
2018-02-09T13:03:11.000Z,1005.14
2018-02-09T13:13:11.000Z,1005.14
2018-02-09T13:23:11.000Z,1005.015
2018-02-09T13:33:11.000Z,1004.98
2018-02-09T13:43:11.000Z,1004.94
2018-02-09T13:53:11.000Z,1004.863
2018-02-09T14:03:11.000Z,1004.846
2018-02-09T14:13:11.000Z,1004.779
2018-02-09T14:23:11.000Z,1004.805
2018-02-09T14:33:12.000Z,1004.772
2018-02-09T14:43:11.000Z,1004.751
2018-02-09T14:53:11.000Z,1004.74
2018-02-09T15:03:11.000Z,1004.815
2018-02-09T15:13:11.000Z,1004.769
2018-02-09T15:23:11.000Z,1004.79
2018-02-09T15:33:11.000Z,1004.738
2018-02-09T15:43:11.000Z,1004.701
2018-02-09T15:53:11.000Z,1004.693
2018-02-09T16:03:11.000Z,1004.677
2018-02-09T16:13:11.000Z,1004.708
2018-02-09T16:23:11.000Z,1004.709
2018-02-09T16:33:11.000Z,1004.69
2018-02-09T16:43:11.000Z,1004.733
2018-02-09T16:53:11.000Z,1004.755
2018-02-09T17:03:11.000Z,1004.953
2018-02-09T17:13:11.000Z,1004.982
2018-02-09T17:23:11.000Z,1005.071
2018-02-09T17:33:11.000Z,1005.043
2018-02-09T17:43:11.000Z,1005.027
2018-02-09T17:53:11.000Z,1005.11
2018-02-09T18:03:11.000Z,1005.18
2018-02-09T18:13:11.000Z,1005.283
2018-02-09T18:23:12.000Z,1005.38
2018-02-09T18:33:11.000Z,1005.426
2018-02-09T18:43:11.000Z,1005.524
2018-02-09T18:53:11.000Z,1005.451
2018-02-09T19:03:11.000Z,1005.445
2018-02-09T19:13:11.000Z,1005.474
2018-02-09T19:23:14.000Z,1005.648
2018-02-09T19:33:12.000Z,1005.648
2018-02-09T19:43:12.000Z,1005.596
2018-02-09T19:53:12.000Z,1005.595
2018-02-09T20:03:12.000Z,1005.671
2018-02-09T20:13:12.000Z,1005.716
2018-02-09T20:23:12.000Z,1005.67
2018-02-09T20:33:12.000Z,1005.575
2018-02-09T20:43:12.000Z,1005.629
2018-02-09T20:53:12.000Z,1005.75
2018-02-09T21:03:12.000Z,1005.707
2018-02-09T21:13:12.000Z,1005.673
2018-02-09T21:23:12.000Z,1005.748
2018-02-09T21:33:12.000Z,1005.778
2018-02-09T21:43:12.000Z,1005.767
2018-02-09T21:53:13.000Z,1005.811
2018-02-09T22:03:13.000Z,1005.801
2018-02-09T22:13:12.000Z,1005.88
2018-02-09T22:23:12.000Z,1005.896
2018-02-09T22:33:12.000Z,1005.897
2018-02-09T22:43:12.000Z,1005.886
2018-02-09T22:53:12.000Z,1005.844
2018-02-09T23:03:12.000Z,1005.89
2018-02-09T23:13:12.000Z,1005.958
2018-02-09T23:23:12.000Z,1005.96
2018-02-09T23:33:12.000Z,1005.945
2018-02-09T23:43:12.000Z,1005.913
2018-02-09T23:53:12.000Z,1006.04
